sensor_id;sensor_type;location;lat;lon;timestamp;P1;durP1;ratioP1;P2;durP2;ratioP2
12968;SDS011;6549;53.128;8.182;2024-03-07T00:00:05;14.95;;;9.15;;
12968;SDS011;6549;53.128;8.182;2024-03-07T00:06:14;11.87;;;8.27;;
12968;SDS011;6549;53.128;8.182;2024-03-07T00:09:14;14.23;;;8.50;;
12968;SDS011;6549;53.128;8.182;2024-03-07T00:12:15;14.82;;;9.27;;
12968;SDS011;6549;53.128;8.182;2024-03-07T00:15:16;14.40;;;9.32;;
12968;SDS011;6549;53.128;8.182;2024-03-07T00:18:17;16.08;;;9.15;;
12968;SDS011;6549;53.128;8.182;2024-03-07T00:21:17;15.27;;;9.48;;
12968;SDS011;6549;53.128;8.182;2024-03-07T00:24:18;16.55;;;9.23;;
12968;SDS011;6549;53.128;8.182;2024-03-07T00:27:19;14.93;;;8.77;;
12968;SDS011;6549;53.128;8.182;2024-03-07T00:30:20;15.40;;;9.27;;
12968;SDS011;6549;53.128;8.182;2024-03-07T00:33:21;16.85;;;9.30;;
12968;SDS011;6549;53.128;8.182;2024-03-07T00:36:22;13.07;;;8.73;;
12968;SDS011;6549;53.128;8.182;2024-03-07T00:39:22;15.00;;;9.68;;
12968;SDS011;6549;53.128;8.182;2024-03-07T00:42:24;15.15;;;9.82;;
12968;SDS011;6549;53.128;8.182;2024-03-07T00:45:24;14.57;;;9.60;;
12968;SDS011;6549;53.128;8.182;2024-03-07T00:48:24;15.00;;;9.55;;
12968;SDS011;6549;53.128;8.182;2024-03-07T00:51:25;15.40;;;9.93;;
12968;SDS011;6549;53.128;8.182;2024-03-07T00:54:25;15.95;;;9.52;;
12968;SDS011;6549;53.128;8.182;2024-03-07T00:57:26;16.38;;;9.80;;
12968;SDS011;6549;53.128;8.182;2024-03-07T01:00:26;17.00;;;10.32;;
12968;SDS011;6549;53.128;8.182;2024-03-07T01:03:28;15.20;;;10.23;;
12968;SDS011;6549;53.128;8.182;2024-03-07T01:06:28;17.95;;;10.70;;
12968;SDS011;6549;53.128;8.182;2024-03-07T01:09:28;15.75;;;10.20;;
12968;SDS011;6549;53.128;8.182;2024-03-07T01:12:29;16.52;;;10.52;;
12968;SDS011;6549;53.128;8.182;2024-03-07T01:15:31;17.48;;;10.75;;
12968;SDS011;6549;53.128;8.182;2024-03-07T01:18:32;17.02;;;10.57;;
12968;SDS011;6549;53.128;8.182;2024-03-07T01:21:33;17.00;;;11.40;;
12968;SDS011;6549;53.128;8.182;2024-03-07T01:24:34;18.90;;;12.05;;
12968;SDS011;6549;53.128;8.182;2024-03-07T01:27:35;20.20;;;11.88;;
12968;SDS011;6549;53.128;8.182;2024-03-07T01:30:35;17.27;;;11.43;;
12968;SDS011;6549;53.128;8.182;2024-03-07T01:33:36;17.55;;;11.30;;
12968;SDS011;6549;53.128;8.182;2024-03-07T01:36:36;18.55;;;11.73;;
12968;SDS011;6549;53.128;8.182;2024-03-07T01:39:36;19.25;;;12.02;;
12968;SDS011;6549;53.128;8.182;2024-03-07T01:42:37;20.15;;;12.23;;
12968;SDS011;6549;53.128;8.182;2024-03-07T01:45:37;19.05;;;13.18;;
12968;SDS011;6549;53.128;8.182;2024-03-07T01:48:38;20.40;;;12.35;;
12968;SDS011;6549;53.128;8.182;2024-03-07T01:51:40;18.30;;;12.65;;
12968;SDS011;6549;53.128;8.182;2024-03-07T01:54:40;21.25;;;13.18;;
12968;SDS011;6549;53.128;8.182;2024-03-07T01:57:41;20.48;;;12.48;;
12968;SDS011;6549;53.128;8.182;2024-03-07T02:00:42;19.60;;;12.85;;
12968;SDS011;6549;53.128;8.182;2024-03-07T02:03:43;21.37;;;13.10;;
12968;SDS011;6549;53.128;8.182;2024-03-07T02:06:44;21.70;;;13.70;;
12968;SDS011;6549;53.128;8.182;2024-03-07T02:09:44;22.40;;;14.13;;
12968;SDS011;6549;53.128;8.182;2024-03-07T02:12:45;22.30;;;14.77;;
12968;SDS011;6549;53.128;8.182;2024-03-07T02:15:45;23.35;;;14.45;;
12968;SDS011;6549;53.128;8.182;2024-03-07T02:18:46;23.63;;;14.10;;
12968;SDS011;6549;53.128;8.182;2024-03-07T02:21:46;21.92;;;14.88;;
12968;SDS011;6549;53.128;8.182;2024-03-07T02:24:47;23.20;;;14.70;;
12968;SDS011;6549;53.128;8.182;2024-03-07T02:27:47;24.83;;;15.73;;
12968;SDS011;6549;53.128;8.182;2024-03-07T02:30:48;24.65;;;14.90;;
12968;SDS011;6549;53.128;8.182;2024-03-07T02:33:48;26.35;;;15.73;;
12968;SDS011;6549;53.128;8.182;2024-03-07T02:36:48;25.45;;;15.75;;
12968;SDS011;6549;53.128;8.182;2024-03-07T02:39:49;26.45;;;16.65;;
12968;SDS011;6549;53.128;8.182;2024-03-07T02:42:49;26.45;;;16.38;;
12968;SDS011;6549;53.128;8.182;2024-03-07T02:45:49;27.08;;;16.83;;
12968;SDS011;6549;53.128;8.182;2024-03-07T02:48:50;29.30;;;16.70;;
12968;SDS011;6549;53.128;8.182;2024-03-07T02:51:50;26.50;;;16.90;;
12968;SDS011;6549;53.128;8.182;2024-03-07T02:54:51;32.92;;;18.73;;
12968;SDS011;6549;53.128;8.182;2024-03-07T02:57:51;32.58;;;17.52;;
12968;SDS011;6549;53.128;8.182;2024-03-07T03:00:59;30.65;;;18.77;;
12968;SDS011;6549;53.128;8.182;2024-03-07T03:04:00;36.00;;;19.65;;
12968;SDS011;6549;53.128;8.182;2024-03-07T03:07:00;31.58;;;18.92;;
12968;SDS011;6549;53.128;8.182;2024-03-07T03:10:00;32.40;;;19.48;;
12968;SDS011;6549;53.128;8.182;2024-03-07T03:13:01;34.88;;;20.08;;
12968;SDS011;6549;53.128;8.182;2024-03-07T03:16:03;37.53;;;19.55;;
12968;SDS011;6549;53.128;8.182;2024-03-07T03:22:05;33.80;;;20.47;;
12968;SDS011;6549;53.128;8.182;2024-03-07T03:25:05;34.08;;;19.65;;
12968;SDS011;6549;53.128;8.182;2024-03-07T03:28:07;41.15;;;20.42;;
12968;SDS011;6549;53.128;8.182;2024-03-07T03:31:10;37.22;;;22.08;;
12968;SDS011;6549;53.128;8.182;2024-03-07T03:34:13;50.65;;;23.90;;
12968;SDS011;6549;53.128;8.182;2024-03-07T03:37:14;50.85;;;24.30;;
12968;SDS011;6549;53.128;8.182;2024-03-07T03:40:15;47.90;;;23.40;;
12968;SDS011;6549;53.128;8.182;2024-03-07T03:43:15;51.20;;;23.73;;
12968;SDS011;6549;53.128;8.182;2024-03-07T03:46:15;50.50;;;23.58;;
12968;SDS011;6549;53.128;8.182;2024-03-07T03:49:16;48.33;;;23.98;;
12968;SDS011;6549;53.128;8.182;2024-03-07T03:52:16;51.05;;;23.88;;
12968;SDS011;6549;53.128;8.182;2024-03-07T03:55:16;55.42;;;22.95;;
12968;SDS011;6549;53.128;8.182;2024-03-07T03:58:17;47.60;;;22.50;;
12968;SDS011;6549;53.128;8.182;2024-03-07T04:01:17;52.05;;;23.50;;
12968;SDS011;6549;53.128;8.182;2024-03-07T04:04:18;44.42;;;21.85;;
12968;SDS011;6549;53.128;8.182;2024-03-07T04:07:18;49.17;;;23.05;;
12968;SDS011;6549;53.128;8.182;2024-03-07T04:10:19;50.70;;;22.52;;
12968;SDS011;6549;53.128;8.182;2024-03-07T04:13:19;48.35;;;23.33;;
12968;SDS011;6549;53.128;8.182;2024-03-07T04:16:22;53.53;;;23.23;;
12968;SDS011;6549;53.128;8.182;2024-03-07T04:19:23;58.35;;;23.60;;
12968;SDS011;6549;53.128;8.182;2024-03-07T04:22:23;57.17;;;22.90;;
12968;SDS011;6549;53.128;8.182;2024-03-07T04:25:24;51.45;;;23.30;;
12968;SDS011;6549;53.128;8.182;2024-03-07T04:28:25;56.70;;;23.48;;
12968;SDS011;6549;53.128;8.182;2024-03-07T04:31:25;47.90;;;22.90;;
12968;SDS011;6549;53.128;8.182;2024-03-07T04:34:26;48.47;;;23.35;;
12968;SDS011;6549;53.128;8.182;2024-03-07T04:37:33;57.70;;;24.63;;
12968;SDS011;6549;53.128;8.182;2024-03-07T04:40:36;49.63;;;21.95;;
12968;SDS011;6549;53.128;8.182;2024-03-07T04:43:37;50.67;;;22.13;;
12968;SDS011;6549;53.128;8.182;2024-03-07T04:46:37;52.35;;;23.98;;
12968;SDS011;6549;53.128;8.182;2024-03-07T04:49:42;46.25;;;21.92;;
12968;SDS011;6549;53.128;8.182;2024-03-07T04:52:43;48.47;;;21.08;;
12968;SDS011;6549;53.128;8.182;2024-03-07T04:55:45;52.88;;;23.17;;
12968;SDS011;6549;53.128;8.182;2024-03-07T04:58:45;49.20;;;21.55;;
12968;SDS011;6549;53.128;8.182;2024-03-07T05:01:48;46.40;;;22.60;;
12968;SDS011;6549;53.128;8.182;2024-03-07T05:04:52;48.95;;;22.40;;
12968;SDS011;6549;53.128;8.182;2024-03-07T05:07:52;43.80;;;20.52;;
12968;SDS011;6549;53.128;8.182;2024-03-07T05:10:53;51.67;;;22.52;;
12968;SDS011;6549;53.128;8.182;2024-03-07T05:13:53;42.58;;;20.13;;
12968;SDS011;6549;53.128;8.182;2024-03-07T05:16:53;46.17;;;20.27;;
12968;SDS011;6549;53.128;8.182;2024-03-07T05:20:06;50.05;;;21.52;;
12968;SDS011;6549;53.128;8.182;2024-03-07T05:23:16;51.38;;;21.88;;
12968;SDS011;6549;53.128;8.182;2024-03-07T05:26:16;52.65;;;22.00;;
12968;SDS011;6549;53.128;8.182;2024-03-07T05:29:17;50.00;;;21.95;;
12968;SDS011;6549;53.128;8.182;2024-03-07T05:32:19;50.80;;;22.38;;
12968;SDS011;6549;53.128;8.182;2024-03-07T05:35:21;53.40;;;22.63;;
12968;SDS011;6549;53.128;8.182;2024-03-07T05:38:21;48.92;;;21.40;;
12968;SDS011;6549;53.128;8.182;2024-03-07T05:41:22;53.22;;;22.40;;
12968;SDS011;6549;53.128;8.182;2024-03-07T05:44:22;54.95;;;22.38;;
12968;SDS011;6549;53.128;8.182;2024-03-07T05:47:23;52.63;;;23.42;;
12968;SDS011;6549;53.128;8.182;2024-03-07T05:50:23;57.75;;;24.48;;
12968;SDS011;6549;53.128;8.182;2024-03-07T05:53:24;55.10;;;22.92;;
12968;SDS011;6549;53.128;8.182;2024-03-07T05:56:25;62.05;;;23.13;;
12968;SDS011;6549;53.128;8.182;2024-03-07T05:59:25;61.63;;;24.63;;
12968;SDS011;6549;53.128;8.182;2024-03-07T06:02:28;61.08;;;24.20;;
12968;SDS011;6549;53.128;8.182;2024-03-07T06:05:29;54.17;;;24.73;;
12968;SDS011;6549;53.128;8.182;2024-03-07T06:08:29;59.50;;;23.95;;
12968;SDS011;6549;53.128;8.182;2024-03-07T06:11:31;57.13;;;24.40;;
12968;SDS011;6549;53.128;8.182;2024-03-07T06:14:31;54.67;;;23.45;;
12968;SDS011;6549;53.128;8.182;2024-03-07T06:17:31;52.85;;;23.48;;
12968;SDS011;6549;53.128;8.182;2024-03-07T06:20:32;55.83;;;23.30;;
12968;SDS011;6549;53.128;8.182;2024-03-07T06:23:33;64.35;;;24.45;;
12968;SDS011;6549;53.128;8.182;2024-03-07T06:26:35;61.35;;;25.73;;
12968;SDS011;6549;53.128;8.182;2024-03-07T06:29:59;53.50;;;21.90;;
12968;SDS011;6549;53.128;8.182;2024-03-07T06:32:59;57.88;;;23.42;;
12968;SDS011;6549;53.128;8.182;2024-03-07T06:36:00;52.58;;;21.85;;
12968;SDS011;6549;53.128;8.182;2024-03-07T06:39:03;55.60;;;22.83;;
12968;SDS011;6549;53.128;8.182;2024-03-07T06:42:07;56.33;;;24.52;;
12968;SDS011;6549;53.128;8.182;2024-03-07T06:45:07;53.00;;;23.40;;
12968;SDS011;6549;53.128;8.182;2024-03-07T06:48:08;55.90;;;23.90;;
12968;SDS011;6549;53.128;8.182;2024-03-07T06:51:08;53.08;;;23.50;;
12968;SDS011;6549;53.128;8.182;2024-03-07T06:54:09;48.53;;;22.40;;
12968;SDS011;6549;53.128;8.182;2024-03-07T06:57:10;47.03;;;21.58;;
12968;SDS011;6549;53.128;8.182;2024-03-07T07:00:11;53.15;;;22.05;;
12968;SDS011;6549;53.128;8.182;2024-03-07T07:03:12;55.42;;;21.83;;
12968;SDS011;6549;53.128;8.182;2024-03-07T07:06:14;57.40;;;23.20;;
12968;SDS011;6549;53.128;8.182;2024-03-07T07:09:14;54.22;;;23.17;;
12968;SDS011;6549;53.128;8.182;2024-03-07T07:12:18;54.20;;;22.08;;
12968;SDS011;6549;53.128;8.182;2024-03-07T07:15:19;58.80;;;24.02;;
12968;SDS011;6549;53.128;8.182;2024-03-07T07:18:20;49.92;;;22.27;;
12968;SDS011;6549;53.128;8.182;2024-03-07T07:21:23;47.65;;;21.90;;
12968;SDS011;6549;53.128;8.182;2024-03-07T07:24:24;50.22;;;22.55;;
12968;SDS011;6549;53.128;8.182;2024-03-07T07:27:25;46.20;;;21.52;;
12968;SDS011;6549;53.128;8.182;2024-03-07T07:30:25;46.40;;;21.38;;
12968;SDS011;6549;53.128;8.182;2024-03-07T07:33:27;48.35;;;20.63;;
12968;SDS011;6549;53.128;8.182;2024-03-07T07:36:27;48.70;;;22.45;;
12968;SDS011;6549;53.128;8.182;2024-03-07T07:39:27;47.83;;;22.02;;
12968;SDS011;6549;53.128;8.182;2024-03-07T07:42:29;48.13;;;22.75;;
12968;SDS011;6549;53.128;8.182;2024-03-07T07:45:29;48.10;;;20.75;;
12968;SDS011;6549;53.128;8.182;2024-03-07T07:51:32;39.75;;;17.70;;
12968;SDS011;6549;53.128;8.182;2024-03-07T07:54:33;35.45;;;17.27;;
12968;SDS011;6549;53.128;8.182;2024-03-07T07:57:33;39.35;;;17.65;;
12968;SDS011;6549;53.128;8.182;2024-03-07T08:00:33;36.35;;;17.80;;
12968;SDS011;6549;53.128;8.182;2024-03-07T08:03:35;35.00;;;17.42;;
12968;SDS011;6549;53.128;8.182;2024-03-07T08:06:36;39.20;;;17.40;;
12968;SDS011;6549;53.128;8.182;2024-03-07T08:09:37;36.92;;;17.95;;
12968;SDS011;6549;53.128;8.182;2024-03-07T08:12:37;37.08;;;17.48;;
12968;SDS011;6549;53.128;8.182;2024-03-07T08:15:38;37.10;;;17.08;;
12968;SDS011;6549;53.128;8.182;2024-03-07T08:18:38;37.88;;;16.83;;
12968;SDS011;6549;53.128;8.182;2024-03-07T08:21:39;33.47;;;16.20;;
12968;SDS011;6549;53.128;8.182;2024-03-07T08:24:39;34.65;;;16.70;;
12968;SDS011;6549;53.128;8.182;2024-03-07T08:27:40;37.50;;;17.15;;
12968;SDS011;6549;53.128;8.182;2024-03-07T08:33:42;35.60;;;16.77;;
12968;SDS011;6549;53.128;8.182;2024-03-07T08:36:45;36.67;;;16.83;;
12968;SDS011;6549;53.128;8.182;2024-03-07T08:39:47;33.13;;;16.52;;
12968;SDS011;6549;53.128;8.182;2024-03-07T08:42:48;39.42;;;18.38;;
12968;SDS011;6549;53.128;8.182;2024-03-07T08:45:53;35.20;;;16.25;;
12968;SDS011;6549;53.128;8.182;2024-03-07T08:48:54;35.35;;;17.15;;
12968;SDS011;6549;53.128;8.182;2024-03-07T08:51:54;39.17;;;17.13;;
12968;SDS011;6549;53.128;8.182;2024-03-07T08:54:54;32.95;;;16.42;;
12968;SDS011;6549;53.128;8.182;2024-03-07T08:57:55;37.72;;;17.75;;
12968;SDS011;6549;53.128;8.182;2024-03-07T09:00:55;40.72;;;17.83;;
12968;SDS011;6549;53.128;8.182;2024-03-07T09:03:56;35.25;;;16.25;;
12968;SDS011;6549;53.128;8.182;2024-03-07T09:06:59;34.35;;;17.27;;
12968;SDS011;6549;53.128;8.182;2024-03-07T09:09:59;38.95;;;17.40;;
12968;SDS011;6549;53.128;8.182;2024-03-07T09:13:00;37.35;;;18.60;;
12968;SDS011;6549;53.128;8.182;2024-03-07T09:16:00;37.47;;;18.65;;
12968;SDS011;6549;53.128;8.182;2024-03-07T09:19:05;36.83;;;18.55;;
12968;SDS011;6549;53.128;8.182;2024-03-07T09:22:05;38.65;;;18.27;;
12968;SDS011;6549;53.128;8.182;2024-03-07T09:25:08;40.53;;;18.50;;
12968;SDS011;6549;53.128;8.182;2024-03-07T09:28:09;37.72;;;18.23;;
12968;SDS011;6549;53.128;8.182;2024-03-07T09:31:10;36.20;;;18.15;;
12968;SDS011;6549;53.128;8.182;2024-03-07T09:34:11;39.35;;;19.33;;
12968;SDS011;6549;53.128;8.182;2024-03-07T09:37:12;41.35;;;17.98;;
12968;SDS011;6549;53.128;8.182;2024-03-07T09:40:13;39.63;;;18.48;;
12968;SDS011;6549;53.128;8.182;2024-03-07T09:43:13;42.40;;;19.63;;
12968;SDS011;6549;53.128;8.182;2024-03-07T09:46:15;39.22;;;19.92;;
12968;SDS011;6549;53.128;8.182;2024-03-07T09:49:16;37.88;;;18.52;;
12968;SDS011;6549;53.128;8.182;2024-03-07T09:52:17;37.15;;;18.63;;
12968;SDS011;6549;53.128;8.182;2024-03-07T09:55:20;39.42;;;17.88;;
12968;SDS011;6549;53.128;8.182;2024-03-07T09:58:21;38.05;;;18.85;;
12968;SDS011;6549;53.128;8.182;2024-03-07T10:01:22;37.85;;;18.55;;
12968;SDS011;6549;53.128;8.182;2024-03-07T10:04:31;39.08;;;18.75;;
12968;SDS011;6549;53.128;8.182;2024-03-07T10:07:38;34.80;;;17.95;;
12968;SDS011;6549;53.128;8.182;2024-03-07T10:10:38;35.72;;;17.13;;
12968;SDS011;6549;53.128;8.182;2024-03-07T10:13:38;34.88;;;17.30;;
12968;SDS011;6549;53.128;8.182;2024-03-07T10:16:39;33.30;;;17.27;;
12968;SDS011;6549;53.128;8.182;2024-03-07T10:19:41;36.15;;;19.13;;
12968;SDS011;6549;53.128;8.182;2024-03-07T10:22:41;31.38;;;18.48;;
12968;SDS011;6549;53.128;8.182;2024-03-07T10:25:42;31.77;;;17.33;;
12968;SDS011;6549;53.128;8.182;2024-03-07T10:28:42;33.45;;;16.58;;
12968;SDS011;6549;53.128;8.182;2024-03-07T10:31:43;29.95;;;17.13;;
12968;SDS011;6549;53.128;8.182;2024-03-07T10:34:45;35.80;;;16.73;;
12968;SDS011;6549;53.128;8.182;2024-03-07T10:37:46;33.95;;;18.15;;
12968;SDS011;6549;53.128;8.182;2024-03-07T10:40:49;35.38;;;16.90;;
12968;SDS011;6549;53.128;8.182;2024-03-07T10:43:54;38.78;;;17.67;;
12968;SDS011;6549;53.128;8.182;2024-03-07T10:46:58;37.47;;;17.27;;
12968;SDS011;6549;53.128;8.182;2024-03-07T10:59:41;31.92;;;15.70;;
12968;SDS011;6549;53.128;8.182;2024-03-07T11:02:47;28.63;;;15.65;;
12968;SDS011;6549;53.128;8.182;2024-03-07T11:05:53;29.58;;;16.00;;
12968;SDS011;6549;53.128;8.182;2024-03-07T11:08:53;30.92;;;16.00;;
12968;SDS011;6549;53.128;8.182;2024-03-07T11:11:55;28.13;;;15.68;;
12968;SDS011;6549;53.128;8.182;2024-03-07T11:14:57;31.02;;;16.13;;
12968;SDS011;6549;53.128;8.182;2024-03-07T11:17:58;31.92;;;16.50;;
12968;SDS011;6549;53.128;8.182;2024-03-07T11:20:59;29.85;;;16.00;;
12968;SDS011;6549;53.128;8.182;2024-03-07T11:23:59;31.05;;;16.08;;
12968;SDS011;6549;53.128;8.182;2024-03-07T11:27:02;32.60;;;17.35;;
12968;SDS011;6549;53.128;8.182;2024-03-07T11:30:05;35.88;;;18.10;;
12968;SDS011;6549;53.128;8.182;2024-03-07T11:33:09;30.70;;;16.27;;
12968;SDS011;6549;53.128;8.182;2024-03-07T11:36:14;32.22;;;18.10;;
12968;SDS011;6549;53.128;8.182;2024-03-07T11:39:44;36.90;;;18.20;;
12968;SDS011;6549;53.128;8.182;2024-03-07T11:42:50;35.63;;;17.60;;
12968;SDS011;6549;53.128;8.182;2024-03-07T11:45:52;36.33;;;17.20;;
12968;SDS011;6549;53.128;8.182;2024-03-07T11:48:53;36.92;;;17.83;;
12968;SDS011;6549;53.128;8.182;2024-03-07T11:51:54;38.22;;;18.98;;
12968;SDS011;6549;53.128;8.182;2024-03-07T11:54:56;40.40;;;19.77;;
12968;SDS011;6549;53.128;8.182;2024-03-07T11:58:03;34.17;;;18.35;;
12968;SDS011;6549;53.128;8.182;2024-03-07T12:01:04;37.00;;;17.75;;
12968;SDS011;6549;53.128;8.182;2024-03-07T12:04:05;35.08;;;18.98;;
12968;SDS011;6549;53.128;8.182;2024-03-07T12:07:06;37.85;;;19.05;;
12968;SDS011;6549;53.128;8.182;2024-03-07T12:10:10;33.20;;;18.08;;
12968;SDS011;6549;53.128;8.182;2024-03-07T12:13:11;34.08;;;18.65;;
12968;SDS011;6549;53.128;8.182;2024-03-07T12:16:12;37.58;;;19.17;;
12968;SDS011;6549;53.128;8.182;2024-03-07T12:19:12;38.03;;;20.27;;
12968;SDS011;6549;53.128;8.182;2024-03-07T12:22:20;42.42;;;22.30;;
12968;SDS011;6549;53.128;8.182;2024-03-07T12:25:24;42.63;;;23.17;;
12968;SDS011;6549;53.128;8.182;2024-03-07T12:28:25;42.50;;;22.27;;
12968;SDS011;6549;53.128;8.182;2024-03-07T12:31:25;40.00;;;21.17;;
12968;SDS011;6549;53.128;8.182;2024-03-07T12:34:25;42.55;;;20.15;;
12968;SDS011;6549;53.128;8.182;2024-03-07T12:37:34;35.15;;;19.08;;
12968;SDS011;6549;53.128;8.182;2024-03-07T12:40:35;33.63;;;17.92;;
12968;SDS011;6549;53.128;8.182;2024-03-07T12:43:37;43.95;;;22.92;;
12968;SDS011;6549;53.128;8.182;2024-03-07T12:46:37;45.92;;;23.10;;
12968;SDS011;6549;53.128;8.182;2024-03-07T12:49:41;45.65;;;22.70;;
12968;SDS011;6549;53.128;8.182;2024-03-07T12:52:42;44.50;;;23.17;;
12968;SDS011;6549;53.128;8.182;2024-03-07T12:55:42;42.92;;;22.48;;
12968;SDS011;6549;53.128;8.182;2024-03-07T12:58:45;45.30;;;23.05;;
12968;SDS011;6549;53.128;8.182;2024-03-07T13:01:46;40.10;;;21.35;;
12968;SDS011;6549;53.128;8.182;2024-03-07T13:04:47;36.50;;;20.35;;
12968;SDS011;6549;53.128;8.182;2024-03-07T13:07:51;32.92;;;19.15;;
12968;SDS011;6549;53.128;8.182;2024-03-07T13:10:52;29.55;;;17.00;;
12968;SDS011;6549;53.128;8.182;2024-03-07T13:13:55;33.35;;;18.35;;
12968;SDS011;6549;53.128;8.182;2024-03-07T13:17:00;34.25;;;19.48;;
12968;SDS011;6549;53.128;8.182;2024-03-07T13:20:00;32.15;;;19.40;;
12968;SDS011;6549;53.128;8.182;2024-03-07T13:23:01;31.52;;;18.00;;
12968;SDS011;6549;53.128;8.182;2024-03-07T13:26:02;32.00;;;17.77;;
12968;SDS011;6549;53.128;8.182;2024-03-07T13:29:08;39.28;;;21.25;;
12968;SDS011;6549;53.128;8.182;2024-03-07T13:32:09;33.63;;;19.70;;
12968;SDS011;6549;53.128;8.182;2024-03-07T13:35:12;31.55;;;20.45;;
12968;SDS011;6549;53.128;8.182;2024-03-07T13:38:13;29.20;;;16.00;;
12968;SDS011;6549;53.128;8.182;2024-03-07T13:41:15;29.08;;;15.50;;
12968;SDS011;6549;53.128;8.182;2024-03-07T13:44:15;32.47;;;17.85;;
12968;SDS011;6549;53.128;8.182;2024-03-07T13:47:16;33.05;;;19.25;;
12968;SDS011;6549;53.128;8.182;2024-03-07T13:50:16;27.90;;;16.40;;
12968;SDS011;6549;53.128;8.182;2024-03-07T13:56:28;36.97;;;18.52;;
12968;SDS011;6549;53.128;8.182;2024-03-07T14:06:33;44.35;;;22.33;;
12968;SDS011;6549;53.128;8.182;2024-03-07T14:20:35;33.92;;;18.38;;
12968;SDS011;6549;53.128;8.182;2024-03-07T14:30:54;30.77;;;17.27;;
12968;SDS011;6549;53.128;8.182;2024-03-07T14:34:04;31.85;;;17.70;;
12968;SDS011;6549;53.128;8.182;2024-03-07T14:37:20;29.75;;;18.85;;
12968;SDS011;6549;53.128;8.182;2024-03-07T14:40:23;35.47;;;20.15;;
12968;SDS011;6549;53.128;8.182;2024-03-07T14:43:26;38.42;;;21.15;;
12968;SDS011;6549;53.128;8.182;2024-03-07T14:46:27;36.58;;;20.98;;
12968;SDS011;6549;53.128;8.182;2024-03-07T14:49:28;34.08;;;19.92;;
12968;SDS011;6549;53.128;8.182;2024-03-07T14:52:28;29.25;;;18.00;;
12968;SDS011;6549;53.128;8.182;2024-03-07T14:55:30;29.42;;;16.88;;
12968;SDS011;6549;53.128;8.182;2024-03-07T14:58:31;28.45;;;15.95;;
12968;SDS011;6549;53.128;8.182;2024-03-07T15:01:31;27.05;;;18.55;;
12968;SDS011;6549;53.128;8.182;2024-03-07T15:04:33;31.08;;;18.42;;
12968;SDS011;6549;53.128;8.182;2024-03-07T15:07:34;25.20;;;16.17;;
12968;SDS011;6549;53.128;8.182;2024-03-07T15:10:35;24.30;;;13.38;;
12968;SDS011;6549;53.128;8.182;2024-03-07T15:13:36;21.60;;;12.00;;
12968;SDS011;6549;53.128;8.182;2024-03-07T15:16:37;24.25;;;13.93;;
12968;SDS011;6549;53.128;8.182;2024-03-07T15:19:38;23.90;;;13.43;;
12968;SDS011;6549;53.128;8.182;2024-03-07T15:22:38;25.83;;;13.32;;
12968;SDS011;6549;53.128;8.182;2024-03-07T15:25:39;25.88;;;13.23;;
12968;SDS011;6549;53.128;8.182;2024-03-07T15:28:39;28.75;;;13.85;;
12968;SDS011;6549;53.128;8.182;2024-03-07T15:31:39;30.88;;;16.00;;
12968;SDS011;6549;53.128;8.182;2024-03-07T15:34:40;31.58;;;16.15;;
12968;SDS011;6549;53.128;8.182;2024-03-07T15:37:41;33.13;;;18.27;;
12968;SDS011;6549;53.128;8.182;2024-03-07T15:40:41;36.15;;;18.10;;
12968;SDS011;6549;53.128;8.182;2024-03-07T15:43:42;29.33;;;15.85;;
12968;SDS011;6549;53.128;8.182;2024-03-07T15:46:43;31.67;;;15.27;;
12968;SDS011;6549;53.128;8.182;2024-03-07T15:49:44;29.80;;;15.40;;
12968;SDS011;6549;53.128;8.182;2024-03-07T15:52:45;28.85;;;14.23;;
12968;SDS011;6549;53.128;8.182;2024-03-07T15:55:47;25.00;;;12.95;;
12968;SDS011;6549;53.128;8.182;2024-03-07T15:58:47;21.38;;;13.43;;
12968;SDS011;6549;53.128;8.182;2024-03-07T16:01:48;25.80;;;14.07;;
12968;SDS011;6549;53.128;8.182;2024-03-07T16:04:48;22.40;;;13.00;;
12968;SDS011;6549;53.128;8.182;2024-03-07T16:07:52;28.52;;;15.00;;
12968;SDS011;6549;53.128;8.182;2024-03-07T16:10:52;37.40;;;17.88;;
12968;SDS011;6549;53.128;8.182;2024-03-07T16:13:53;34.03;;;17.92;;
12968;SDS011;6549;53.128;8.182;2024-03-07T16:16:53;33.30;;;16.33;;
12968;SDS011;6549;53.128;8.182;2024-03-07T16:19:54;40.85;;;19.33;;
12968;SDS011;6549;53.128;8.182;2024-03-07T16:22:54;36.90;;;18.60;;
12968;SDS011;6549;53.128;8.182;2024-03-07T16:25:55;41.97;;;20.52;;
12968;SDS011;6549;53.128;8.182;2024-03-07T16:28:55;37.00;;;18.98;;
12968;SDS011;6549;53.128;8.182;2024-03-07T16:31:56;34.03;;;18.10;;
12968;SDS011;6549;53.128;8.182;2024-03-07T16:34:56;31.88;;;16.88;;
12968;SDS011;6549;53.128;8.182;2024-03-07T16:37:56;32.78;;;16.70;;
12968;SDS011;6549;53.128;8.182;2024-03-07T16:40:58;30.63;;;16.80;;
12968;SDS011;6549;53.128;8.182;2024-03-07T16:43:59;33.75;;;15.07;;
12968;SDS011;6549;53.128;8.182;2024-03-07T16:47:02;31.98;;;16.15;;
12968;SDS011;6549;53.128;8.182;2024-03-07T16:50:02;33.40;;;15.43;;
12968;SDS011;6549;53.128;8.182;2024-03-07T16:53:04;32.88;;;17.63;;
12968;SDS011;6549;53.128;8.182;2024-03-07T16:56:04;37.78;;;18.77;;
12968;SDS011;6549;53.128;8.182;2024-03-07T16:59:05;36.58;;;17.55;;
12968;SDS011;6549;53.128;8.182;2024-03-07T17:02:06;32.10;;;17.08;;
12968;SDS011;6549;53.128;8.182;2024-03-07T17:05:06;29.40;;;16.48;;
12968;SDS011;6549;53.128;8.182;2024-03-07T17:08:15;32.05;;;17.02;;
12968;SDS011;6549;53.128;8.182;2024-03-07T17:11:16;31.40;;;17.67;;
12968;SDS011;6549;53.128;8.182;2024-03-07T17:14:16;30.65;;;16.17;;
12968;SDS011;6549;53.128;8.182;2024-03-07T17:17:16;27.95;;;15.15;;
12968;SDS011;6549;53.128;8.182;2024-03-07T17:20:18;28.60;;;13.80;;
12968;SDS011;6549;53.128;8.182;2024-03-07T17:23:23;29.13;;;15.82;;
12968;SDS011;6549;53.128;8.182;2024-03-07T17:26:23;29.23;;;15.75;;
12968;SDS011;6549;53.128;8.182;2024-03-07T17:29:24;24.15;;;13.45;;
12968;SDS011;6549;53.128;8.182;2024-03-07T17:32:26;25.88;;;12.98;;
12968;SDS011;6549;53.128;8.182;2024-03-07T17:35:29;26.52;;;13.70;;
12968;SDS011;6549;53.128;8.182;2024-03-07T17:38:30;26.60;;;13.60;;
12968;SDS011;6549;53.128;8.182;2024-03-07T17:41:33;24.38;;;12.63;;
12968;SDS011;6549;53.128;8.182;2024-03-07T17:44:36;23.13;;;12.15;;
12968;SDS011;6549;53.128;8.182;2024-03-07T17:47:39;24.50;;;12.93;;
12968;SDS011;6549;53.128;8.182;2024-03-07T17:50:40;20.80;;;11.52;;
12968;SDS011;6549;53.128;8.182;2024-03-07T17:53:43;24.10;;;12.43;;
12968;SDS011;6549;53.128;8.182;2024-03-07T17:56:44;23.05;;;12.75;;
12968;SDS011;6549;53.128;8.182;2024-03-07T17:59:44;21.60;;;11.68;;
12968;SDS011;6549;53.128;8.182;2024-03-07T18:02:48;24.58;;;12.80;;
12968;SDS011;6549;53.128;8.182;2024-03-07T18:05:49;23.35;;;12.43;;
12968;SDS011;6549;53.128;8.182;2024-03-07T18:08:51;29.85;;;13.52;;
12968;SDS011;6549;53.128;8.182;2024-03-07T18:11:51;25.67;;;13.98;;
12968;SDS011;6549;53.128;8.182;2024-03-07T18:14:55;23.48;;;11.75;;
12968;SDS011;6549;53.128;8.182;2024-03-07T18:17:57;26.33;;;13.77;;
12968;SDS011;6549;53.128;8.182;2024-03-07T18:20:58;25.08;;;13.35;;
12968;SDS011;6549;53.128;8.182;2024-03-07T18:23:58;27.48;;;14.75;;
12968;SDS011;6549;53.128;8.182;2024-03-07T18:26:59;25.10;;;13.23;;
12968;SDS011;6549;53.128;8.182;2024-03-07T18:30:10;29.73;;;15.73;;
12968;SDS011;6549;53.128;8.182;2024-03-07T18:33:10;27.13;;;15.68;;
12968;SDS011;6549;53.128;8.182;2024-03-07T18:36:13;27.35;;;14.50;;
12968;SDS011;6549;53.128;8.182;2024-03-07T18:39:13;27.17;;;14.50;;
12968;SDS011;6549;53.128;8.182;2024-03-07T18:42:16;31.23;;;14.63;;
12968;SDS011;6549;53.128;8.182;2024-03-07T18:45:20;26.98;;;13.88;;
12968;SDS011;6549;53.128;8.182;2024-03-07T18:48:22;28.75;;;13.85;;